Time;durP1;ratioP1;P1;durP2;ratioP2;P2;SDS_P1;SDS_P2;PMS_P1;PMS_P2;Temp;Humidity;BMP_temperature;BMP_pressure;BME280_temperature;BME280_humidity;BME280_pressure;Samples;Min_cycle;Max_cycle;Signal;HPM_P1;HPM_P2
2023/08/05 00:02:38;;;;;;;4.40;2.70;;;;;;;22.07;65.00;98514.86;223503;181;138838;-65
2023/08/05 00:07:42;;;;;;;7.20;2.80;;;;;;;22.07;64.57;98499.97;223298;181;136511;-63
2023/08/05 00:12:54;;;;;;;5.60;2.60;;;;;;;21.98;64.54;98490.16;223517;181;148088;-66
2023/08/05 00:17:57;;;;;;;7.60;3.10;;;;;;;21.91;64.70;98482.69;223473;181;140975;-64
2023/08/05 00:23:00;;;;;;;7.00;3.20;;;;;;;21.85;64.81;98490.18;223408;181;137987;-64
2023/08/05 00:28:04;;;;;;;7.00;3.20;;;;;;;21.78;64.92;98470.86;223539;181;147541;-64
2023/08/05 00:33:07;;;;;;;5.80;3.10;;;;;;;21.70;65.28;98458.80;223508;181;138597;-64
2023/08/05 00:38:10;;;;;;;4.90;3.00;;;;;;;21.67;65.36;98445.89;223453;181;138362;-63
2023/08/05 00:43:14;;;;;;;6.70;2.90;;;;;;;21.72;65.58;98432.85;223575;183;147649;-63
2023/08/05 00:48:17;;;;;;;8.80;3.30;;;;;;;21.79;65.23;98453.77;223504;181;137654;-65
2023/08/05 00:53:23;;;;;;;6.00;2.80;;;;;;;21.82;64.90;98472.52;223371;181;140582;-65
2023/08/05 00:58:27;;;;;;;4.30;2.80;;;;;;;21.79;64.91;98461.34;223496;181;148322;-65
2023/08/05 01:03:30;;;;;;;7.30;2.90;;;;;;;21.81;64.51;98447.92;223407;181;138774;-66
2023/08/05 01:08:35;;;;;;;5.00;3.00;;;;;;;21.78;64.58;98446.20;223503;181;138144;-65
2023/08/05 01:13:42;;;;;;;5.90;3.40;;;;;;;21.73;64.59;98446.80;223454;181;147537;-65
2023/08/05 01:18:46;;;;;;;6.70;3.10;;;;;;;21.69;64.70;98453.23;223378;180;138829;-63
2023/08/05 01:24:44;;;;;;;4.80;2.90;;;;;;;21.63;64.90;98458.69;223443;181;139483;-64
2023/08/05 01:29:48;;;;;;;5.40;2.90;;;;;;;21.58;64.92;98452.75;223344;181;147584;-62
2023/08/05 01:34:52;;;;;;;6.30;2.90;;;;;;;21.58;65.16;98451.21;223419;182;138796;-62
2023/08/05 01:39:56;;;;;;;6.50;3.00;;;;;;;21.58;65.55;98466.50;223429;181;136916;-61
2023/08/05 01:44:59;;;;;;;5.30;3.00;;;;;;;21.57;65.62;98473.34;223481;181;148716;-62
2023/08/05 01:50:03;;;;;;;7.20;3.30;;;;;;;21.54;66.22;98481.39;223461;181;139402;-61
2023/08/05 01:55:06;;;;;;;8.00;2.80;;;;;;;21.45;67.39;98488.55;223517;181;153922;-62
2023/08/05 02:00:10;;;;;;;5.90;3.20;;;;;;;21.32;68.19;98479.30;223447;181;147653;-62
2023/08/05 02:05:16;;;;;;;10.90;3.00;;;;;;;21.24;68.75;98463.77;223390;182;138807;-64
2023/08/05 02:10:19;;;;;;;10.50;3.70;;;;;;;21.20;68.81;98406.81;223288;181;137532;-63
2023/08/05 02:15:22;;;;;;;6.80;3.50;;;;;;;21.11;69.65;98445.96;223540;181;149263;-64
2023/08/05 02:20:25;;;;;;;5.10;3.10;;;;;;;20.99;70.41;98469.15;223468;181;140314;-64
2023/08/05 02:25:28;;;;;;;10.60;3.10;;;;;;;20.89;70.96;98480.19;223570;181;137795;-64
2023/08/05 02:30:31;;;;;;;8.10;3.00;;;;;;;20.80;71.47;98478.15;223440;181;148248;-67
2023/08/05 02:35:35;;;;;;;5.00;3.30;;;;;;;20.77;71.53;98467.72;223449;181;139518;-64
2023/08/05 02:40:38;;;;;;;6.00;2.80;;;;;;;20.80;71.81;98470.38;223661;181;137912;-65
2023/08/05 02:45:41;;;;;;;6.40;3.30;;;;;;;20.85;71.25;98483.05;223427;181;148612;-65
2023/08/05 02:50:44;;;;;;;5.60;2.90;;;;;;;20.89;71.17;98472.65;223483;181;139043;-67
2023/08/05 02:55:48;;;;;;;4.90;3.00;;;;;;;20.86;70.91;98457.27;223448;181;137564;-65
2023/08/05 03:00:51;;;;;;;4.10;2.80;;;;;;;20.81;70.91;98441.30;223565;181;147579;-67
2023/08/05 03:05:56;;;;;;;5.10;2.80;;;;;;;20.78;71.03;98432.02;223461;181;139435;-65
2023/08/05 03:11:00;;;;;;;6.10;3.20;;;;;;;20.81;71.02;98429.86;223514;182;138982;-63
2023/08/05 03:16:11;;;;;;;6.00;3.30;;;;;;;20.79;71.42;98434.02;223429;181;147639;-63
2023/08/05 03:21:24;;;;;;;6.00;3.20;;;;;;;20.75;71.54;98455.08;223495;181;138828;-63
2023/08/05 03:26:44;;;;;;;4.50;2.80;;;;;;;20.65;72.40;98478.13;223408;181;136699;-64
2023/08/05 03:31:48;;;;;;;7.90;3.30;;;;;;;20.57;72.84;98531.75;223423;181;147718;-64
2023/08/05 03:36:54;;;;;;;8.80;3.60;;;;;;;20.53;72.98;98517.59;223450;182;138597;-64
2023/08/05 03:41:58;;;;;;;9.90;3.80;;;;;;;20.55;73.54;98483.09;223504;182;138398;-64
2023/08/05 03:47:03;;;;;;;7.60;4.00;;;;;;;20.48;73.81;98561.04;223372;181;147833;-64
2023/08/05 03:52:06;;;;;;;8.90;4.40;;;;;;;20.33;74.18;98549.17;223525;181;138768;-64
2023/08/05 03:57:10;;;;;;;9.00;3.90;;;;;;;20.27;75.08;98565.18;223534;181;137487;-64
2023/08/05 04:02:14;;;;;;;10.10;4.00;;;;;;;20.25;75.56;98599.02;223489;178;149707;-64
2023/08/05 04:07:19;;;;;;;8.80;4.10;;;;;;;20.27;75.81;98590.41;223599;181;140090;-64
2023/08/05 04:12:22;;;;;;;8.40;4.40;;;;;;;20.34;76.03;98535.35;223549;181;137529;-65
2023/08/05 04:17:26;;;;;;;7.10;4.20;;;;;;;20.35;76.19;98531.48;223509;181;147223;-67
2023/08/05 04:22:30;;;;;;;7.60;3.90;;;;;;;20.28;76.37;98518.77;223510;181;139031;-62
2023/08/05 04:27:33;;;;;;;6.60;3.80;;;;;;;20.24;76.26;98542.63;223457;181;138568;-63
2023/08/05 04:32:37;;;;;;;6.40;3.80;;;;;;;20.24;76.67;98530.83;223396;182;148223;-64
2023/08/05 04:37:40;;;;;;;7.00;4.00;;;;;;;20.27;76.98;98509.48;223506;181;138769;-61
2023/08/05 04:42:45;;;;;;;82.40;64.60;;;;;;;20.32;76.92;98485.63;223576;181;137190;-60
2023/08/05 04:47:48;;;;;;;;;;;;;;;20.39;76.86;98484.87;223520;181;148000;-61
2023/08/05 04:52:52;;;;;;;92.00;74.50;;;;;;;20.50;76.84;98451.62;223449;181;138764;-61
2023/08/05 04:57:55;;;;;;;100.00;79.80;;;;;;;20.64;76.20;98442.81;223351;181;137861;-60
2023/08/05 05:02:58;;;;;;;13.90;10.90;;;;;;;20.82;75.68;98449.05;223479;181;148157;-60
2023/08/05 05:08:03;;;;;;;10.60;5.90;;;;;;;21.05;74.88;98473.90;223573;181;140197;-62
2023/08/05 05:13:06;;;;;;;79.80;67.10;;;;;;;21.08;74.09;98475.91;223542;180;137942;-62
2023/08/05 05:18:10;;;;;;;8.70;5.20;;;;;;;20.95;74.32;98483.89;223469;181;148241;-62
2023/08/05 05:23:13;;;;;;;5.70;3.80;;;;;;;20.88;74.54;98493.10;223500;181;138939;-61
2023/08/05 05:28:16;;;;;;;11.20;7.90;;;;;;;20.83;74.70;98515.13;223545;181;138456;-62
2023/08/05 05:33:19;;;;;;;24.10;15.60;;;;;;;20.88;74.98;98473.53;223457;181;148276;-62
2023/08/05 05:38:23;;;;;;;37.90;33.00;;;;;;;20.97;74.74;98448.73;223500;181;138532;-62
2023/08/05 05:43:27;;;;;;;9.10;5.60;;;;;;;20.96;74.80;98443.54;223594;181;139265;-62
2023/08/05 05:48:30;;;;;;;7.70;3.20;;;;;;;20.93;74.78;98449.94;223514;181;147484;-62
2023/08/05 05:53:33;;;;;;;6.70;3.70;;;;;;;20.90;74.70;98447.95;223330;181;138976;-62
2023/08/05 05:58:36;;;;;;;8.90;4.00;;;;;;;20.94;74.71;98438.36;223553;181;139944;-61
2023/08/05 06:03:42;;;;;;;8.10;3.20;;;;;;;20.97;74.69;98413.40;223489;181;148139;-61
2023/08/05 06:08:45;;;;;;;5.40;3.50;;;;;;;21.04;74.59;98366.86;223365;181;138887;-62
2023/08/05 06:13:48;;;;;;;53.70;41.40;;;;;;;21.15;74.28;98304.96;223471;181;138560;-62
2023/08/05 06:18:52;;;;;;;5.50;3.90;;;;;;;21.16;73.94;98337.25;223491;182;148147;-60
2023/08/05 06:23:55;;;;;;;5.00;3.00;;;;;;;21.10;73.96;98314.73;223421;181;138985;-60
2023/08/05 06:28:58;;;;;;;6.30;3.10;;;;;;;21.03;73.94;98333.93;223504;181;136584;-60
2023/08/05 06:34:02;;;;;;;5.90;2.70;;;;;;;20.94;74.36;98390.82;223559;181;147879;-61
2023/08/05 06:39:06;;;;;;;5.40;2.80;;;;;;;20.83;74.65;98435.98;223401;181;139065;-62
2023/08/05 06:44:09;;;;;;;4.40;2.80;;;;;;;20.83;74.96;98475.64;223450;181;137241;-61
2023/08/05 06:49:12;;;;;;;4.90;3.10;;;;;;;20.78;74.65;98493.00;223468;181;147606;-61
2023/08/05 06:54:21;;;;;;;6.60;2.90;;;;;;;20.69;75.36;98462.11;223444;181;138795;-61
2023/08/05 06:59:27;;;;;;;5.10;3.10;;;;;;;20.72;75.98;98437.81;223542;181;136727;-61
2023/08/05 07:04:32;;;;;;;3.70;2.60;;;;;;;20.91;75.87;98387.80;223491;181;148780;-60
2023/08/05 07:09:35;;;;;;;27.50;20.50;;;;;;;21.11;75.40;98323.46;223433;181;138682;-64
2023/08/05 07:14:39;;;;;;;6.20;3.30;;;;;;;21.28;74.58;98233.79;223534;181;137197;-64
2023/08/05 07:19:42;;;;;;;6.60;3.40;;;;;;;21.46;73.77;98114.32;223517;181;148809;-61
2023/08/05 07:24:45;;;;;;;6.60;3.10;;;;;;;21.46;73.46;98009.45;223584;181;139999;-61
2023/08/05 07:29:48;;;;;;;7.60;3.70;;;;;;;21.30;73.72;98042.82;223468;182;140584;-61
2023/08/05 07:34:55;;;;;;;6.30;2.90;;;;;;;21.25;74.26;98138.34;223556;181;147874;-61
2023/08/05 07:39:59;;;;;;;5.90;3.30;;;;;;;21.28;74.76;98181.02;223447;181;139614;-61
2023/08/05 07:45:07;;;;;;;6.80;3.40;;;;;;;21.31;74.93;98218.98;223492;181;136928;-59
2023/08/05 07:50:12;;;;;;;8.20;3.00;;;;;;;21.28;74.79;98234.16;223453;181;147632;-62
2023/08/05 07:55:16;;;;;;;97.10;80.10;;;;;;;21.18;74.73;98270.00;223620;181;139425;-62
2023/08/05 08:00:19;;;;;;;14.10;9.40;;;;;;;21.22;75.05;98285.15;223374;181;138379;-62
2023/08/05 08:05:23;;;;;;;14.80;8.10;;;;;;;21.31;75.41;98292.48;223565;181;147528;-62
2023/08/05 08:10:26;;;;;;;6.80;5.00;;;;;;;21.36;75.03;98314.98;223437;181;139725;-63
2023/08/05 08:15:29;;;;;;;6.10;3.80;;;;;;;21.28;75.07;98344.17;223549;181;137552;-63
2023/08/05 08:20:32;;;;;;;7.40;3.70;;;;;;;21.29;74.90;98349.14;223486;181;149347;-64
2023/08/05 08:25:36;;;;;;;7.70;4.00;;;;;;;21.30;74.96;98359.15;223568;181;139046;-63
2023/08/05 08:30:51;;;;;;;9.50;4.20;;;;;;;21.33;74.75;98343.42;223586;181;137137;-63
2023/08/05 08:35:54;;;;;;;9.20;5.60;;;;;;;21.26;74.34;98347.67;223485;181;147615;-66
2023/08/05 08:40:58;;;;;;;9.00;4.70;;;;;;;21.19;74.38;98351.34;223542;181;139103;-63
2023/08/05 08:46:02;;;;;;;70.70;61.30;;;;;;;21.18;74.59;98348.95;223589;181;138183;-62
2023/08/05 08:51:07;;;;;;;8.00;7.00;;;;;;;21.14;74.50;98338.83;223476;181;148167;-62
2023/08/05 08:56:10;;;;;;;5.70;4.10;;;;;;;21.11;74.69;98337.06;223554;181;139100;-63
2023/08/05 09:01:17;;;;;;;8.90;6.70;;;;;;;21.04;74.88;98315.59;223555;181;136794;-62
2023/08/05 09:06:25;;;;;;;6.50;4.90;;;;;;;21.00;75.36;98286.34;223482;181;149419;-62
2023/08/05 09:11:36;;;;;;;7.80;4.80;;;;;;;21.00;75.47;98285.39;223472;181;140692;-61
2023/08/05 09:16:59;;;;;;;5.60;3.90;;;;;;;21.11;75.62;98283.65;223552;181;137660;-61
2023/08/05 09:22:05;;;;;;;5.70;4.20;;;;;;;21.08;75.36;98298.55;223535;181;149970;-60
2023/08/05 09:27:08;;;;;;;6.40;4.20;;;;;;;21.08;75.66;98284.07;223390;181;138676;-62
2023/08/05 09:32:11;;;;;;;5.30;4.20;;;;;;;21.14;76.34;98266.98;223549;181;139230;-62
2023/08/05 09:37:19;;;;;;;4.40;3.20;;;;;;;21.23;76.28;98267.68;223482;182;147470;-64
2023/08/05 09:42:27;;;;;;;6.10;3.40;;;;;;;21.43;76.28;98250.73;223429;181;138814;-63
2023/08/05 09:47:31;;;;;;;6.50;4.50;;;;;;;21.62;76.45;98232.56;223469;181;137715;-63
2023/08/05 09:52:39;;;;;;;32.00;28.40;;;;;;;21.85;76.51;98223.23;223488;181;148093;-62
2023/08/05 09:57:43;;;;;;;8.00;5.70;;;;;;;22.12;76.17;98211.17;223440;181;138989;-61
2023/08/05 10:02:47;;;;;;;6.60;2.60;;;;;;;22.44;75.63;98214.83;223523;182;138980;-61
2023/08/05 10:07:53;;;;;;;4.50;2.50;;;;;;;22.61;74.39;98231.16;223466;181;147646;-61
2023/08/05 10:13:00;;;;;;;4.60;1.90;;;;;;;22.76;73.78;98239.14;223547;181;139228;-62
2023/08/05 10:18:10;;;;;;;3.00;2.70;;;;;;;22.86;72.91;98234.10;223508;181;137327;-61
2023/08/05 10:23:15;;;;;;;8.50;2.20;;;;;;;22.94;72.74;98221.56;223416;181;147877;-62
2023/08/05 10:28:23;;;;;;;4.30;3.00;;;;;;;23.08;72.36;98211.80;223183;181;141085;-61
2023/08/05 10:34:21;;;;;;;6.10;5.50;;;;;;;23.35;71.49;98200.23;221338;194;677070;-61
2023/08/05 10:39:40;;;;;;;9.10;2.90;;;;;;;23.47;70.76;98197.44;222760;186;140206;-61
2023/08/05 10:44:43;;;;;;;3.60;2.20;;;;;;;23.66;70.17;98187.89;223319;182;143565;-60
2023/08/05 10:49:46;;;;;;;12.90;9.10;;;;;;;23.83;69.62;98181.73;223469;182;140046;-61
2023/08/05 10:54:51;;;;;;;19.60;4.50;;;;;;;24.00;69.35;98175.79;223555;178;136799;-61
2023/08/05 11:00:01;;;;;;;4.40;1.80;;;;;;;24.20;69.25;98158.69;223449;182;144031;-61
2023/08/05 11:05:09;;;;;;;12.60;3.40;;;;;;;24.33;68.67;98160.23;223410;182;140023;-63
2023/08/05 11:10:12;;;;;;;7.90;4.70;;;;;;;24.46;68.42;98157.65;223328;182;137537;-63
2023/08/05 11:15:15;;;;;;;7.50;4.80;;;;;;;24.60;67.41;98163.55;223465;182;144976;-62
2023/08/05 11:20:19;;;;;;;3.90;2.90;;;;;;;24.54;67.09;98163.63;223456;181;138698;-61
2023/08/05 11:25:22;;;;;;;5.40;2.50;;;;;;;24.53;67.13;98158.85;223343;183;137579;-61
2023/08/05 11:30:25;;;;;;;2.60;2.10;;;;;;;24.35;67.26;98158.94;223395;182;146291;-61
2023/08/05 11:35:29;;;;;;;6.70;1.90;;;;;;;24.25;67.58;98180.36;223358;182;140162;-64
2023/08/05 11:40:43;;;;;;;7.90;3.10;;;;;;;24.15;68.22;98171.50;223361;182;137808;-61
2023/08/05 11:45:51;;;;;;;5.00;2.90;;;;;;;24.06;68.91;98161.64;223331;182;146273;-62
2023/08/05 11:51:03;;;;;;;4.60;3.80;;;;;;;23.98;69.05;98161.26;223272;182;138678;-61
2023/08/05 11:56:06;;;;;;;3.80;2.70;;;;;;;23.90;69.29;98151.66;223391;182;136191;-61
2023/08/05 12:01:11;;;;;;;5.20;2.20;;;;;;;23.80;69.56;98138.73;223460;182;145882;-61
2023/08/05 12:06:15;;;;;;;3.80;1.80;;;;;;;23.76;69.60;98134.53;223303;182;138895;-60
2023/08/05 12:11:45;;;;;;;4.60;2.10;;;;;;;23.79;69.71;98131.29;223383;182;136863;-59
2023/08/05 12:16:55;;;;;;;2.90;1.90;;;;;;;23.80;69.68;98127.20;223297;182;146990;-60
2023/08/05 12:21:58;;;;;;;3.30;2.20;;;;;;;23.80;69.69;98118.63;223430;182;139011;-60
2023/08/05 12:27:02;;;;;;;13.10;3.80;;;;;;;23.75;69.92;98120.23;223384;182;137349;-59
2023/08/05 12:32:05;;;;;;;12.30;5.40;;;;;;;23.69;70.71;98106.13;223319;182;145845;-61
2023/08/05 12:37:08;;;;;;;22.50;11.20;;;;;;;23.70;71.64;98097.94;223348;182;138957;-61
2023/08/05 12:42:11;;;;;;;15.50;7.00;;;;;;;23.71;72.74;98099.41;223247;182;137122;-60
2023/08/05 12:47:15;;;;;;;7.50;3.50;;;;;;;23.66;72.38;98109.59;223192;183;146932;-60
2023/08/05 12:52:19;;;;;;;3.00;2.60;;;;;;;23.61;71.84;98104.23;223251;182;141226;-61
2023/08/05 12:57:28;;;;;;;11.10;6.90;;;;;;;23.60;71.54;98103.66;223183;182;140448;-60
2023/08/05 13:02:31;;;;;;;5.70;2.70;;;;;;;23.60;71.33;98129.82;223199;182;146099;-61
2023/08/05 13:07:37;;;;;;;9.30;2.80;;;;;;;23.59;71.28;98128.48;223395;182;139023;-61
2023/08/05 13:12:41;;;;;;;7.70;3.40;;;;;;;23.57;71.30;98116.80;223482;182;137283;-61
2023/08/05 13:17:44;;;;;;;8.80;4.60;;;;;;;23.53;71.32;98106.60;223291;182;145953;-61
2023/08/05 13:25:27;;;;;;;10.70;3.50;;;;;;;23.52;71.74;98110.61;221781;193;666439;-61
2023/08/05 13:30:30;;;;;;;4.60;2.70;;;;;;;23.49;72.58;98113.71;222744;187;138393;-62
2023/08/05 13:35:33;;;;;;;4.00;2.50;;;;;;;23.51;72.26;98115.58;222808;186;143890;-61
2023/08/05 13:40:37;;;;;;;5.40;2.20;;;;;;;23.50;71.78;98103.79;222843;186;140427;-61
2023/08/05 13:45:53;;;;;;;2.20;2.00;;;;;;;23.47;71.64;98110.66;222952;185;136418;-62
2023/08/05 13:51:07;;;;;;;5.50;2.20;;;;;;;23.44;71.62;98117.99;223030;185;143718;-61
2023/08/05 13:56:10;;;;;;;5.20;2.10;;;;;;;23.40;71.73;98109.41;222875;185;139108;-61
2023/08/05 14:01:16;;;;;;;20.00;16.20;;;;;;;23.37;71.77;98104.96;223233;183;137614;-62
2023/08/05 14:06:19;;;;;;;6.10;4.60;;;;;;;23.38;71.63;98105.42;223162;183;143718;-61
2023/08/05 14:11:25;;;;;;;4.80;2.60;;;;;;;23.41;71.52;98106.70;223091;184;138886;-62
2023/08/05 14:16:29;;;;;;;4.40;3.10;;;;;;;23.41;71.36;98099.77;223149;183;139699;-62
2023/08/05 14:21:32;;;;;;;3.40;3.10;;;;;;;23.39;71.68;98094.56;223012;183;145937;-61
2023/08/05 14:26:35;;;;;;;3.20;2.30;;;;;;;23.34;71.81;98082.59;223015;183;138522;-61
2023/08/05 14:31:38;;;;;;;6.60;6.00;;;;;;;23.34;71.87;98070.86;223168;183;137463;-62
2023/08/05 14:36:42;;;;;;;4.10;2.70;;;;;;;23.34;71.57;98066.00;223165;184;145503;-62
2023/08/05 14:41:45;;;;;;;3.70;2.30;;;;;;;23.34;71.80;98069.61;222982;184;138721;-62
2023/08/05 14:46:48;;;;;;;3.10;2.20;;;;;;;23.31;71.88;98072.85;223034;184;138889;-61
2023/08/05 14:51:52;;;;;;;3.60;2.10;;;;;;;23.29;72.41;98077.76;223070;184;146305;-62
2023/08/05 14:56:56;;;;;;;5.40;2.20;;;;;;;23.27;72.12;98077.63;222965;184;139051;-62
2023/08/05 15:01:59;;;;;;;2.90;2.30;;;;;;;23.27;72.42;98066.92;223068;181;140275;-63
2023/08/05 15:07:02;;;;;;;3.50;2.60;;;;;;;23.30;72.43;98066.77;223111;184;146140;-63
2023/08/05 15:12:06;;;;;;;68.70;60.50;;;;;;;23.30;72.20;98068.57;223023;184;139580;-61
2023/08/05 15:17:09;;;;;;;11.00;6.50;;;;;;;23.30;72.47;98061.23;223201;184;137379;-62
2023/08/05 15:22:13;;;;;;;4.60;2.50;;;;;;;23.31;72.48;98066.03;223019;184;146269;-61
2023/08/05 15:27:22;;;;;;;6.70;2.50;;;;;;;23.29;72.23;98063.98;222994;184;139130;-61
2023/08/05 15:32:30;;;;;;;4.60;2.60;;;;;;;23.29;72.33;98061.63;223128;184;137567;-61
2023/08/05 15:37:33;;;;;;;2.70;2.40;;;;;;;23.31;72.32;98057.52;223212;184;145871;-61
2023/08/05 15:42:37;;;;;;;4.70;2.70;;;;;;;23.30;72.14;98053.63;223137;184;139133;-60
2023/08/05 15:47:40;;;;;;;10.10;8.70;;;;;;;23.28;72.28;98047.77;223126;184;136819;-61
2023/08/05 15:53:03;;;;;;;22.80;17.50;;;;;;;23.28;72.41;98046.64;223082;184;145536;-62
2023/08/05 15:58:06;;;;;;;4.00;3.00;;;;;;;23.31;72.56;98033.96;223131;184;147096;-60
2023/08/05 16:03:10;;;;;;;4.60;2.80;;;;;;;23.36;72.31;98050.20;223037;183;137718;-61
2023/08/05 16:08:15;;;;;;;3.50;2.90;;;;;;;23.36;72.11;98062.25;223051;183;149715;-61
2023/08/05 16:13:18;;;;;;;12.10;10.70;;;;;;;23.33;72.22;98063.74;223084;184;141435;-61
2023/08/05 16:18:22;;;;;;;38.70;31.60;;;;;;;23.33;72.54;98060.86;223073;184;140881;-61
2023/08/05 16:23:26;;;;;;;8.60;6.20;;;;;;;23.33;72.48;98056.68;222966;184;145835;-60
2023/08/05 16:28:30;;;;;;;;;;;;;;;23.32;72.59;98040.94;223071;183;139307;-60
2023/08/05 16:33:34;;;;;;;7.90;5.10;;;;;;;23.32;72.72;98038.89;223134;184;129661;-58
2023/08/05 16:38:38;;;;;;;5.80;3.90;;;;;;;23.32;72.68;98029.58;223161;183;145819;-59
2023/08/05 16:43:42;;;;;;;4.80;3.30;;;;;;;23.29;72.79;98040.24;223085;184;138814;-59
2023/08/05 16:48:45;;;;;;;10.20;3.80;;;;;;;23.26;73.27;98023.95;223124;184;138513;-58
2023/08/05 16:53:48;;;;;;;4.70;3.20;;;;;;;23.22;73.34;98015.65;223042;183;145685;-59
2023/08/05 16:58:52;;;;;;;4.20;3.20;;;;;;;23.22;73.42;98001.78;222877;184;139297;-59
2023/08/05 17:03:55;;;;;;;4.20;3.30;;;;;;;23.22;73.27;98000.73;223135;183;137136;-59
2023/08/05 17:08:58;;;;;;;4.90;3.70;;;;;;;23.23;73.23;98012.67;223019;184;147439;-59
2023/08/05 17:14:01;;;;;;;4.60;4.10;;;;;;;23.19;73.23;98018.39;223004;183;139954;-59
2023/08/05 17:19:05;;;;;;;6.00;5.00;;;;;;;23.17;73.33;98022.07;223133;184;137307;-59
2023/08/05 17:24:08;;;;;;;7.60;6.80;;;;;;;23.20;73.17;98016.70;223054;184;146379;-60
2023/08/05 17:29:13;;;;;;;6.30;5.10;;;;;;;23.21;73.06;98012.31;223087;184;139158;-59
2023/08/05 17:34:16;;;;;;;7.30;5.80;;;;;;;23.20;72.85;98019.61;223032;183;137013;-59
2023/08/05 17:39:19;;;;;;;6.20;5.60;;;;;;;23.16;72.82;98012.88;223063;184;146413;-59
2023/08/05 17:44:22;;;;;;;8.00;5.80;;;;;;;23.11;72.92;98020.85;223115;184;138926;-59
2023/08/05 17:49:26;;;;;;;5.90;5.30;;;;;;;23.08;72.96;98013.86;223213;183;138054;-59
2023/08/05 17:54:29;;;;;;;8.00;5.90;;;;;;;23.07;72.90;98020.64;223058;183;146511;-59
2023/08/05 17:59:32;;;;;;;6.20;5.60;;;;;;;23.07;72.96;98001.71;223036;183;140416;-59
2023/08/05 18:04:36;;;;;;;8.70;6.70;;;;;;;23.06;72.85;98018.15;223000;184;137429;-59
2023/08/05 18:09:40;;;;;;;13.50;7.10;;;;;;;23.02;72.81;98027.52;223100;184;145603;-59
2023/08/05 18:14:46;;;;;;;57.90;46.70;;;;;;;22.94;73.01;98050.06;223050;183;139070;-62
2023/08/05 18:19:50;;;;;;;15.90;12.50;;;;;;;22.94;73.19;98047.92;223246;183;142528;-62
2023/08/05 18:24:54;;;;;;;13.80;7.70;;;;;;;22.96;72.80;98011.16;223252;183;148613;-63
2023/08/05 18:29:57;;;;;;;10.00;6.80;;;;;;;22.93;72.69;97998.65;223135;183;139260;-62
2023/08/05 18:35:00;;;;;;;10.40;7.80;;;;;;;22.87;72.71;97993.71;223144;183;250891;-63
2023/08/05 18:40:08;;;;;;;7.80;7.00;;;;;;;22.81;72.93;97976.02;223234;184;145477;-66
2023/08/05 18:45:12;;;;;;;11.50;6.40;;;;;;;22.74;73.10;97954.81;223404;183;139210;-65
2023/08/05 18:50:18;;;;;;;6.70;6.00;;;;;;;22.70;73.24;97957.34;223359;183;138761;-61
2023/08/05 18:55:21;;;;;;;160.30;140.40;;;;;;;22.68;73.51;97976.33;223336;184;148256;-61
2023/08/05 19:00:24;;;;;;;30.80;26.90;;;;;;;22.74;74.16;97966.71;223365;183;141121;-62
2023/08/05 19:05:28;;;;;;;9.80;7.10;;;;;;;22.76;73.83;97965.30;223278;183;138033;-61
2023/08/05 19:10:36;;;;;;;7.30;6.30;;;;;;;22.66;73.90;97961.98;223142;183;146032;-62
2023/08/05 19:15:40;;;;;;;7.60;6.40;;;;;;;22.59;74.21;97990.35;223257;182;138671;-64
2023/08/05 19:20:43;;;;;;;8.40;6.80;;;;;;;22.60;74.42;98018.35;223398;183;138824;-62
2023/08/05 19:25:46;;;;;;;9.70;6.80;;;;;;;22.60;74.69;98049.73;223346;183;145587;-62
2023/08/05 19:30:49;;;;;;;13.60;8.20;;;;;;;22.58;75.30;98011.16;223320;183;138683;-63
2023/08/05 19:35:53;;;;;;;9.30;7.00;;;;;;;22.55;75.82;97928.77;223250;183;136685;-61
2023/08/05 19:40:57;;;;;;;9.00;6.90;;;;;;;22.45;76.22;97881.38;223282;183;145888;-62
2023/08/05 19:46:04;;;;;;;10.50;7.20;;;;;;;22.32;76.68;97833.91;223313;183;138767;-62
2023/08/05 19:51:07;;;;;;;9.50;7.80;;;;;;;22.19;77.32;97919.89;223273;183;137384;-63
2023/08/05 19:56:13;;;;;;;10.50;8.20;;;;;;;22.16;77.78;97946.69;223243;183;149203;-62
2023/08/05 20:01:17;;;;;;;9.30;7.80;;;;;;;22.15;78.16;97965.83;223287;183;139400;-62
2023/08/05 20:06:20;;;;;;;11.60;7.70;;;;;;;22.17;78.29;98016.77;223321;183;136962;-63
2023/08/05 20:11:23;;;;;;;10.30;8.50;;;;;;;22.19;78.29;98034.48;223323;183;146408;-63
2023/08/05 20:16:26;;;;;;;11.00;8.20;;;;;;;22.14;78.68;98045.34;223214;183;138665;-62
2023/08/05 20:21:30;;;;;;;11.80;9.30;;;;;;;22.08;79.07;98038.42;223362;183;138963;-65
2023/08/05 20:26:33;;;;;;;11.90;9.00;;;;;;;21.92;79.87;98031.70;223353;182;147355;-63
2023/08/05 20:31:36;;;;;;;13.40;9.80;;;;;;;21.90;80.49;98040.48;223417;183;138951;-62
2023/08/05 20:36:39;;;;;;;13.30;10.40;;;;;;;21.93;80.67;97944.84;223298;183;140861;-63
2023/08/05 20:41:43;;;;;;;11.20;9.80;;;;;;;21.95;80.90;97863.52;223108;183;145888;-66
2023/08/05 20:46:46;;;;;;;13.50;8.90;;;;;;;21.94;80.60;97894.70;223104;184;138660;-61
2023/08/05 20:51:49;;;;;;;11.50;9.80;;;;;;;21.91;80.68;97948.69;223310;183;141512;-61
2023/08/05 20:56:53;;;;;;;12.20;10.10;;;;;;;21.95;81.03;97970.23;223341;183;145824;-62
2023/08/05 21:01:57;;;;;;;12.40;10.60;;;;;;;22.00;80.91;97973.68;223358;183;140862;-62
2023/08/05 21:07:00;;;;;;;12.80;11.40;;;;;;;22.01;80.99;97936.68;223405;183;137130;-62
2023/08/05 21:12:04;;;;;;;12.50;10.50;;;;;;;22.00;81.12;97908.09;223240;183;145948;-63
2023/08/05 21:17:08;;;;;;;12.10;10.60;;;;;;;22.03;81.41;97876.96;223247;183;139670;-67
2023/08/05 21:22:15;;;;;;;13.90;11.80;;;;;;;22.14;81.33;97821.63;223335;183;138270;-62
2023/08/05 21:27:18;;;;;;;16.50;11.50;;;;;;;22.26;80.91;97809.69;223355;182;147129;-59
2023/08/05 21:32:21;;;;;;;12.80;10.30;;;;;;;22.28;80.49;97720.52;223217;183;139305;-62
2023/08/05 21:37:26;;;;;;;10.70;9.50;;;;;;;22.18;80.21;97631.73;223419;183;138748;-62
2023/08/05 21:42:29;;;;;;;10.70;9.60;;;;;;;22.02;80.29;97606.64;223261;183;146534;-63
2023/08/05 21:47:33;;;;;;;10.40;9.30;;;;;;;21.84;80.74;97682.16;223250;183;139009;-62
2023/08/05 21:52:36;;;;;;;13.00;8.70;;;;;;;21.80;81.09;97760.73;223350;183;137891;-64
2023/08/05 21:57:39;;;;;;;11.80;8.50;;;;;;;21.77;81.19;97772.55;223312;183;147617;-67
2023/08/05 22:02:43;;;;;;;10.20;8.60;;;;;;;21.78;81.54;97760.63;223231;183;139538;-64
2023/08/05 22:07:47;;;;;;;13.70;9.60;;;;;;;21.75;81.55;97771.65;223354;183;137758;-64
2023/08/05 22:12:50;;;;;;;11.40;10.10;;;;;;;21.72;81.84;97789.55;223268;183;148048;-63
2023/08/05 22:17:53;;;;;;;12.70;9.20;;;;;;;21.74;82.32;97786.41;223216;183;138923;-60
2023/08/05 22:22:57;;;;;;;10.30;8.60;;;;;;;21.78;82.35;97792.01;223088;184;137833;-64
2023/08/05 22:28:00;;;;;;;11.50;9.70;;;;;;;21.81;82.45;97793.24;223222;183;151298;-65
2023/08/05 22:33:04;;;;;;;13.10;10.40;;;;;;;21.87;82.39;97820.54;223326;183;141518;-63
2023/08/05 22:38:07;;;;;;;13.30;10.90;;;;;;;21.82;82.54;97862.64;223228;183;137608;-62
2023/08/05 22:43:10;;;;;;;16.20;13.20;;;;;;;21.82;82.86;97895.55;223127;184;147747;-63
2023/08/05 22:48:13;;;;;;;19.70;16.00;;;;;;;21.85;83.06;97895.20;223181;183;138680;-62
2023/08/05 22:53:16;;;;;;;18.90;16.70;;;;;;;21.89;83.10;97870.47;223362;183;138533;-63
2023/08/05 22:58:20;;;;;;;20.10;15.40;;;;;;;21.87;82.91;97841.21;223251;183;147704;-60
2023/08/05 23:03:23;;;;;;;18.40;15.90;;;;;;;21.88;83.00;97806.25;223069;183;139797;-60
2023/08/05 23:08:26;;;;;;;20.90;16.40;;;;;;;21.89;82.95;97759.66;223320;183;137976;-61
2023/08/05 23:13:29;;;;;;;18.00;16.10;;;;;;;21.97;83.01;97708.52;223272;182;148675;-58
2023/08/05 23:18:33;;;;;;;21.30;17.50;;;;;;;21.96;82.79;97683.69;223053;183;139021;-60
2023/08/05 23:23:47;;;;;;;22.60;17.30;;;;;;;21.88;82.90;97683.48;223239;183;137291;-60
2023/08/05 23:28:50;;;;;;;20.80;17.50;;;;;;;21.82;82.99;97672.70;223171;183;147538;-61
2023/08/05 23:33:53;;;;;;;24.80;20.00;;;;;;;21.83;82.96;97647.29;223312;183;139438;-61